createdAt,value
2023-03-16T00:04:55.000Z,18.85
2023-03-16T00:10:00.172Z,15.93
2023-03-16T00:15:06.067Z,16.58
2023-03-16T00:20:12.506Z,15.07
2023-03-16T00:25:18.509Z,14.27
2023-03-16T00:30:24.459Z,14.30
2023-03-16T00:35:30.150Z,14.18
2023-03-16T00:40:37.245Z,15.00
2023-03-16T00:45:44.774Z,13.13
2023-03-16T00:50:54.231Z,11.18
2023-03-16T00:56:12.237Z,11.57
2023-03-16T01:01:19.072Z,10.90
2023-03-16T01:06:24.603Z,10.48
2023-03-16T01:11:30.506Z,11.48
2023-03-16T01:16:34.591Z,11.70
2023-03-16T01:21:39.286Z,12.95
2023-03-16T01:26:45.167Z,10.57
2023-03-16T01:31:50.141Z,10.63
2023-03-16T01:36:54.127Z,11.13
2023-03-16T01:41:59.249Z,8.27
2023-03-16T01:47:02.764Z,8.75
2023-03-16T01:52:09.725Z,8.75
2023-03-16T01:57:17.781Z,8.82
2023-03-16T02:02:23.800Z,7.30
2023-03-16T02:07:29.703Z,8.40
2023-03-16T02:12:35.157Z,7.68
2023-03-16T02:17:39.090Z,7.00
2023-03-16T02:22:46.359Z,7.07
2023-03-16T02:27:59.510Z,7.05
2023-03-16T02:33:05.290Z,6.60
2023-03-16T02:38:09.100Z,6.97
2023-03-16T02:43:16.820Z,6.07
2023-03-16T02:48:25.310Z,6.75
2023-03-16T02:53:28.759Z,7.72
2023-03-16T02:58:32.882Z,6.70
2023-03-16T03:03:37.988Z,6.30
2023-03-16T03:08:42.676Z,6.65
2023-03-16T03:13:46.517Z,6.65
2023-03-16T03:18:52.742Z,7.45
2023-03-16T03:23:56.369Z,6.35
2023-03-16T03:28:59.994Z,6.03
2023-03-16T03:34:06.749Z,7.68
2023-03-16T03:39:10.310Z,6.03
2023-03-16T03:44:14.007Z,5.85
2023-03-16T03:49:19.032Z,5.95
2023-03-16T03:54:22.794Z,5.35
2023-03-16T03:59:26.540Z,6.63
2023-03-16T04:04:33.849Z,5.65
2023-03-16T04:09:37.569Z,5.80
2023-03-16T04:14:40.986Z,4.97
2023-03-16T04:19:52.029Z,5.30
2023-03-16T04:24:55.456Z,4.75
2023-03-16T04:29:59.756Z,4.70
2023-03-16T04:35:05.375Z,5.22
2023-03-16T04:40:16.639Z,5.32
2023-03-16T04:45:20.427Z,5.40
2023-03-16T04:50:25.647Z,5.80
2023-03-16T04:55:29.633Z,5.85
2023-03-16T05:00:33.599Z,6.47
2023-03-16T05:05:38.888Z,6.93
2023-03-16T05:10:42.589Z,6.53
2023-03-16T05:15:46.102Z,6.13
2023-03-16T05:20:53.537Z,6.40
2023-03-16T05:25:59.786Z,5.63
2023-03-16T05:31:03.808Z,6.15
2023-03-16T05:36:09.520Z,6.20
2023-03-16T05:41:14.952Z,6.60
2023-03-16T05:46:20.863Z,5.65
2023-03-16T05:51:27.034Z,6.47
2023-03-16T05:56:30.934Z,6.82
2023-03-16T06:01:35.060Z,6.47
2023-03-16T06:06:40.343Z,5.50
2023-03-16T06:11:44.522Z,5.45
2023-03-16T06:16:49.923Z,6.75
2023-03-16T06:21:55.231Z,4.68
2023-03-16T06:26:58.675Z,4.65
2023-03-16T06:32:02.163Z,4.53
2023-03-16T06:37:07.250Z,4.93
2023-03-16T06:42:11.030Z,5.60
2023-03-16T06:47:14.846Z,4.90
2023-03-16T06:52:19.703Z,4.47
2023-03-16T06:57:24.028Z,4.65
2023-03-16T07:02:27.540Z,4.65
2023-03-16T07:07:34.691Z,4.75
2023-03-16T07:12:40.676Z,4.70
2023-03-16T07:17:44.464Z,3.40
2023-03-16T07:22:49.377Z,4.00
2023-03-16T07:27:52.791Z,3.38
2023-03-16T07:32:56.289Z,4.15
2023-03-16T07:38:01.549Z,4.35
2023-03-16T07:43:05.282Z,3.63
2023-03-16T07:48:09.282Z,3.58
2023-03-16T07:53:14.527Z,3.85
2023-03-16T07:58:18.375Z,4.10
2023-03-16T08:03:22.700Z,3.53
2023-03-16T08:08:28.000Z,3.88
2023-03-16T08:13:31.939Z,3.25
2023-03-16T08:18:35.377Z,4.05
2023-03-16T08:23:40.432Z,3.65
2023-03-16T08:28:47.662Z,3.28
2023-03-16T08:33:51.795Z,3.65
2023-03-16T08:39:06.641Z,3.10
2023-03-16T08:44:10.933Z,2.40
2023-03-16T08:49:14.828Z,3.08
2023-03-16T08:54:19.606Z,3.25
2023-03-16T08:59:29.719Z,2.40
2023-03-16T09:04:34.069Z,2.65
2023-03-16T09:09:39.774Z,2.50
2023-03-16T09:14:43.260Z,1.58
2023-03-16T09:19:51.475Z,2.63
2023-03-16T09:24:57.959Z,2.25
2023-03-16T09:30:02.633Z,2.10
2023-03-16T09:35:07.150Z,2.40
2023-03-16T09:40:23.135Z,1.70
2023-03-16T09:45:36.431Z,2.28
2023-03-16T09:50:48.857Z,2.00
2023-03-16T09:55:58.686Z,1.73
2023-03-16T10:01:11.264Z,1.88
2023-03-16T10:06:14.977Z,2.15
2023-03-16T10:11:26.915Z,2.08
2023-03-16T10:16:37.478Z,3.30
2023-03-16T10:21:43.356Z,1.83
2023-03-16T10:27:00.196Z,1.80
2023-03-16T10:32:14.225Z,2.83
2023-03-16T10:37:17.767Z,2.20
2023-03-16T10:42:22.682Z,2.08
2023-03-16T10:47:30.548Z,1.98
2023-03-16T10:52:36.804Z,2.28
2023-03-16T10:57:45.552Z,2.28
2023-03-16T11:02:50.510Z,1.75
2023-03-16T11:08:00.299Z,1.70
2023-03-16T11:13:12.643Z,1.92
2023-03-16T11:18:26.796Z,1.92
2023-03-16T11:23:34.341Z,1.70
2023-03-16T11:28:44.774Z,2.33
2023-03-16T11:33:49.107Z,1.75
2023-03-16T11:39:05.739Z,1.60
2023-03-16T11:44:17.222Z,1.98
2023-03-16T11:49:44.624Z,1.70
2023-03-16T11:55:02.730Z,1.73
2023-03-16T12:00:21.281Z,1.58
2023-03-16T12:05:44.344Z,1.60
2023-03-16T12:10:54.166Z,2.22
2023-03-16T12:16:01.825Z,1.83
2023-03-16T12:21:12.400Z,2.30
2023-03-16T12:26:17.705Z,2.47
2023-03-16T12:31:29.390Z,2.05
2023-03-16T12:36:59.135Z,1.90
2023-03-16T12:42:19.620Z,2.78
2023-03-16T12:47:33.707Z,1.95
2023-03-16T12:52:43.140Z,2.20
2023-03-16T12:57:49.553Z,1.98
2023-03-16T13:02:59.982Z,1.83
2023-03-16T13:08:10.859Z,1.90
2023-03-16T13:13:17.238Z,1.80
2023-03-16T13:18:25.343Z,2.50
2023-03-16T13:23:52.231Z,1.98
2023-03-16T13:28:56.913Z,1.88
2023-03-16T13:34:03.827Z,2.50
2023-03-16T13:39:17.514Z,1.90
2023-03-16T13:44:23.822Z,1.88
2023-03-16T13:49:28.788Z,1.63
2023-03-16T13:54:33.305Z,1.48
2023-03-16T13:59:39.073Z,2.10
2023-03-16T14:04:44.791Z,2.03
2023-03-16T14:09:50.239Z,2.35
2023-03-16T14:14:56.847Z,2.42
2023-03-16T14:20:04.221Z,2.42
2023-03-16T14:25:11.969Z,2.42
2023-03-16T14:30:19.513Z,1.73
2023-03-16T14:35:28.622Z,1.65
2023-03-16T14:40:33.453Z,1.98
2023-03-16T14:45:37.989Z,1.73
2023-03-16T14:50:45.972Z,1.52
2023-03-16T14:55:49.749Z,1.98
2023-03-16T15:00:54.997Z,2.38
2023-03-16T15:06:01.366Z,1.50
2023-03-16T15:11:07.672Z,1.60
2023-03-16T15:16:14.205Z,1.40
2023-03-16T15:21:24.840Z,1.30
2023-03-16T15:26:30.722Z,1.58
2023-03-16T15:31:37.534Z,3.05
2023-03-16T15:36:42.564Z,2.08
2023-03-16T15:41:48.044Z,2.00
2023-03-16T15:46:51.682Z,1.75
2023-03-16T15:51:56.478Z,2.13
2023-03-16T15:57:00.206Z,1.80
2023-03-16T16:02:04.212Z,1.77
2023-03-16T16:07:12.132Z,1.63
2023-03-16T16:12:16.666Z,1.73
2023-03-16T16:17:32.761Z,1.52
2023-03-16T16:22:48.505Z,1.48
2023-03-16T16:27:52.827Z,1.35
2023-03-16T16:32:58.835Z,1.85
2023-03-16T16:38:04.263Z,1.55
2023-03-16T16:43:08.356Z,1.67
2023-03-16T16:48:28.067Z,2.17
2023-03-16T16:53:32.827Z,4.32
2023-03-16T16:58:36.576Z,5.30
2023-03-16T17:03:40.390Z,5.65
2023-03-16T17:08:47.572Z,4.13
2023-03-16T17:13:52.817Z,3.65
2023-03-16T17:18:57.245Z,3.10
2023-03-16T17:24:03.785Z,3.33
2023-03-16T17:29:15.113Z,3.13
2023-03-16T17:34:20.931Z,5.20
2023-03-16T17:39:27.449Z,14.40
2023-03-16T17:44:33.798Z,25.15
2023-03-16T17:49:37.272Z,22.90
2023-03-16T17:54:42.196Z,21.27
2023-03-16T17:59:46.973Z,21.38
2023-03-16T18:04:51.210Z,18.48
2023-03-16T18:09:55.968Z,22.70
2023-03-16T18:14:59.523Z,25.55
2023-03-16T18:20:03.073Z,31.00
2023-03-16T18:25:27.802Z,35.75
2023-03-16T18:30:32.825Z,27.83
2023-03-16T18:35:38.448Z,26.30
2023-03-16T18:40:43.328Z,23.80
2023-03-16T18:45:47.294Z,20.75
2023-03-16T18:50:53.347Z,23.60
2023-03-16T18:55:58.627Z,21.00
2023-03-16T19:01:03.285Z,26.45
2023-03-16T19:06:07.557Z,32.05
2023-03-16T19:11:13.237Z,39.95
2023-03-16T19:16:18.184Z,29.95
2023-03-16T19:21:23.963Z,24.60
2023-03-16T19:26:30.634Z,21.13
2023-03-16T19:31:34.394Z,29.30
2023-03-16T19:36:38.331Z,27.77
2023-03-16T19:41:43.618Z,19.38
2023-03-16T19:46:47.801Z,16.80
2023-03-16T19:51:53.074Z,15.85
2023-03-16T19:57:01.280Z,15.90
2023-03-16T20:02:20.648Z,17.52
2023-03-16T20:07:24.430Z,22.35
2023-03-16T20:12:29.729Z,21.15
2023-03-16T20:17:33.890Z,20.33
2023-03-16T20:22:37.405Z,21.50
2023-03-16T20:27:42.688Z,22.15
2023-03-16T20:32:47.072Z,22.33
2023-03-16T20:37:52.743Z,22.70
2023-03-16T20:42:57.661Z,22.40
2023-03-16T20:48:01.844Z,20.63
2023-03-16T20:53:05.278Z,20.27
2023-03-16T20:58:19.058Z,18.30
2023-03-16T21:03:24.580Z,20.55
2023-03-16T21:08:28.817Z,23.30
2023-03-16T21:13:34.820Z,24.52
2023-03-16T21:18:38.196Z,25.17
2023-03-16T21:23:41.669Z,25.08
2023-03-16T21:28:53.299Z,30.58
2023-03-16T21:33:57.178Z,34.42
2023-03-16T21:39:01.335Z,31.30
2023-03-16T21:44:06.311Z,31.40
2023-03-16T21:49:11.553Z,33.15
2023-03-16T21:54:15.881Z,31.33
2023-03-16T21:59:22.626Z,28.23
2023-03-16T22:04:26.936Z,30.55
2023-03-16T22:09:33.106Z,27.55
2023-03-16T22:14:38.119Z,28.00
2023-03-16T22:19:41.881Z,22.30
2023-03-16T22:24:46.110Z,22.25
2023-03-16T22:29:51.243Z,19.90
2023-03-16T22:34:57.141Z,19.73
2023-03-16T22:40:02.943Z,18.27
2023-03-16T22:45:18.922Z,17.80
2023-03-16T22:50:24.284Z,19.58
2023-03-16T22:55:31.632Z,17.45
2023-03-16T23:00:38.105Z,18.40
2023-03-16T23:05:41.855Z,18.73
2023-03-16T23:10:46.183Z,17.90
2023-03-16T23:15:53.486Z,19.98
2023-03-16T23:20:57.300Z,19.55
2023-03-16T23:26:01.389Z,23.23
2023-03-16T23:31:07.421Z,25.15
2023-03-16T23:36:16.087Z,24.00
2023-03-16T23:41:22.174Z,23.65
2023-03-16T23:46:29.058Z,23.25
2023-03-16T23:51:36.674Z,24.33
2023-03-16T23:56:40.310Z,24.23
